| time (UTC) | temp C | wind direction | speed KPH | gust KPH | rain 1hr cm | rain 24hr cm | rain mn cm | humidity % | barometer mb |
| 20260507074120 | 13 | 0 | 0.0 | 0.0 | 0.00 | 0.00 | 0.00 | 37 | 932.7 |
| 20260507065754 | 15 | 0 | 0.0 | 0.0 | 0.00 | 0.00 | 0.00 | 33 | 932.5 |
| 20260507065702 | 15 | 0 | 0.0 | 0.0 | 0.00 | 0.00 | 0.00 | 33 | 932.5 |
| 20260507064202 | 17 | 0 | 0.0 | 0.0 | 0.00 | 0.00 | 0.00 | 32 | 932.3 |
| 20260507060802 | 18 | 0 | 0.0 | 0.0 | 0.00 | 0.00 | 0.00 | 29 | 931.8 |
| 20260507051803 | 20 | 0 | 0.0 | 0.0 | 0.00 | 0.00 | 0.00 | 27 | 931.2 |
| 20260507035804 | 20 | 0 | 0.0 | 0.0 | 0.00 | 0.00 | 0.00 | 26 | 929.9 |
| 20260507033303 | 21 | 0 | 0.0 | 0.0 | 0.00 | 0.00 | 0.00 | 25 | 929.3 |
| 20260507025306 | 22 | 0 | 0.0 | 0.0 | 0.00 | 0.00 | 0.00 | 23 | 928.5 |
| 20260507015803 | 23 | 0 | 0.0 | 0.0 | 0.00 | 0.00 | 0.00 | 22 | 927.5 |
| 20260507013443 | 24 | 0 | 0.0 | 0.0 | 0.00 | 0.00 | 0.00 | 20 | 927.4 |
| 20260507005756 | 25 | 0 | 0.0 | 0.0 | 0.00 | 0.00 | 0.00 | 19 | 927.3 |
| 20260507003756 | 26 | 0 | 0.0 | 0.0 | 0.00 | 0.00 | 0.00 | 18 | 927.2 |
| 20260507003235 | 25 | 0 | 0.0 | 0.0 | 0.00 | 0.00 | 0.00 | 18 | 927.0 |
| 20260507002756 | 25 | 0 | 0.0 | 0.0 | 0.00 | 0.00 | 0.00 | 18 | 927.0 |
| 20260506235756 | 26 | 0 | 0.0 | 0.0 | 0.00 | 0.00 | 0.00 | 17 | 926.9 |
| 20260506234255 | 26 | 0 | 0.0 | 0.0 | 0.00 | 0.00 | 0.00 | 17 | 926.8 |
| 20260506233756 | 26 | 0 | 0.0 | 0.0 | 0.00 | 0.00 | 0.00 | 17 | 926.8 |
| 20260506233256 | 26 | 0 | 0.0 | 0.0 | 0.00 | 0.00 | 0.00 | 17 | 926.9 |
| 20260506232756 | 26 | 0 | 0.0 | 0.0 | 0.00 | 0.00 | 0.00 | 17 | 926.9 |
| 20260506231756 | 26 | 0 | 0.0 | 0.0 | 0.00 | 0.00 | 0.00 | 17 | 926.9 |
| 20260506230756 | 26 | 0 | 0.0 | 0.0 | 0.00 | 0.00 | 0.00 | 17 | 927.0 |
| 20260506225626 | 26 | 0 | 0.0 | 0.0 | 0.00 | 0.00 | 0.00 | 18 | 927.0 |
| 20260506225255 | 26 | 0 | 0.0 | 0.0 | 0.00 | 0.00 | 0.00 | 18 | 927.0 |
| 20260506221733 | 27 | 0 | 0.0 | 0.0 | 0.00 | 0.00 | 0.00 | 17 | 927.4 |
| 20260506221502 | 27 | 0 | 0.0 | 0.0 | 0.00 | 0.00 | 0.00 | 17 | 927.4 |
| 20260506165317 | 18 | 0 | 0.0 | 0.0 | 0.00 | 0.00 | 0.00 | 31 | 931.8 |
| 20260506165043 | 18 | 0 | 0.0 | 0.0 | 0.00 | 0.00 | 0.00 | 31 | 931.8 |
| 20260506164327 | 17 | 0 | 0.0 | 0.0 | 0.00 | 0.00 | 0.00 | 32 | 931.8 |
| 20260506164042 | 17 | 0 | 0.0 | 0.0 | 0.00 | 0.00 | 0.00 | 32 | 931.8 |
| 20260506163543 | 17 | 0 | 0.0 | 0.0 | 0.00 | 0.00 | 0.00 | 32 | 931.8 |
| 20260506163042 | 17 | 0 | 0.0 | 0.0 | 0.00 | 0.00 | 0.00 | 33 | 931.9 |
| 20260506162820 | 17 | 0 | 0.0 | 0.0 | 0.00 | 0.00 | 0.00 | 33 | 932.0 |
| 20260506162543 | 17 | 0 | 0.0 | 0.0 | 0.00 | 0.00 | 0.00 | 33 | 932.0 |
| 20260506162043 | 17 | 0 | 0.0 | 0.0 | 0.00 | 0.00 | 0.00 | 33 | 932.0 |
| 20260506161820 | 17 | 0 | 0.0 | 0.0 | 0.00 | 0.00 | 0.00 | 33 | 932.1 |
| 20260506161542 | 17 | 0 | 0.0 | 0.0 | 0.00 | 0.00 | 0.00 | 33 | 932.1 |
| 20260506161341 | 17 | 0 | 0.0 | 0.0 | 0.00 | 0.00 | 0.00 | 34 | 932.0 |
| 20260506161043 | 17 | 0 | 0.0 | 0.0 | 0.00 | 0.00 | 0.00 | 34 | 932.0 |
| 20260506160543 | 16 | 0 | 0.0 | 0.0 | 0.00 | 0.00 | 0.00 | 34 | 932.0 |
| 20260506160341 | 16 | 0 | 0.0 | 0.0 | 0.00 | 0.00 | 0.00 | 34 | 932.0 |
| 20260506160042 | 16 | 0 | 0.0 | 0.0 | 0.00 | 0.00 | 0.00 | 34 | 932.0 |
| 20260506154702 | 16 | 0 | 0.0 | 0.0 | 0.00 | 0.00 | 0.00 | 34 | 932.1 |
| 20260506154339 | 16 | 0 | 0.0 | 0.0 | 0.00 | 0.00 | 0.00 | 34 | 932.1 |
| 20260506154202 | 16 | 0 | 0.0 | 0.0 | 0.00 | 0.00 | 0.00 | 34 | 932.1 |
| 20260506153355 | 16 | 0 | 0.0 | 0.0 | 0.00 | 0.00 | 0.00 | 36 | 932.1 |
| 20260506153202 | 16 | 0 | 0.0 | 0.0 | 0.00 | 0.00 | 0.00 | 36 | 932.1 |
| 20260506152946 | 16 | 0 | 0.0 | 0.0 | 0.00 | 0.00 | 0.00 | 37 | 932.2 |
| 20260506152702 | 16 | 0 | 0.0 | 0.0 | 0.00 | 0.00 | 0.00 | 37 | 932.2 |
| 20260506152202 | 15 | 0 | 0.0 | 0.0 | 0.00 | 0.00 | 0.00 | 37 | 932.2 |
| 20260506151908 | 15 | 0 | 0.0 | 0.0 | 0.00 | 0.00 | 0.00 | 38 | 932.2 |
| 20260506151702 | 15 | 0 | 0.0 | 0.0 | 0.00 | 0.00 | 0.00 | 38 | 932.2 |
| 20260506151352 | 15 | 0 | 0.0 | 0.0 | 0.00 | 0.00 | 0.00 | 39 | 932.3 |
| 20260506151202 | 15 | 0 | 0.0 | 0.0 | 0.00 | 0.00 | 0.00 | 39 | 932.3 |
| 20260506150703 | 15 | 0 | 0.0 | 0.0 | 0.00 | 0.00 | 0.00 | 39 | 932.2 |
| 20260506150203 | 15 | 0 | 0.0 | 0.0 | 0.00 | 0.00 | 0.00 | 39 | 932.3 |
| 20260506145702 | 14 | 0 | 0.0 | 0.0 | 0.00 | 0.00 | 0.00 | 39 | 932.4 |
| 20260506144703 | 14 | 0 | 0.0 | 0.0 | 0.00 | 0.00 | 0.00 | 39 | 932.4 |
| 20260506144444 | 13 | 0 | 0.0 | 0.0 | 0.00 | 0.00 | 0.00 | 41 | 932.3 |
| 20260506144202 | 13 | 0 | 0.0 | 0.0 | 0.00 | 0.00 | 0.00 | 41 | 932.3 |
| 20260506143203 | 13 | 0 | 0.0 | 0.0 | 0.00 | 0.00 | 0.00 | 43 | 932.3 |
| 20260506140350 | 11 | 0 | 0.0 | 0.0 | 0.00 | 0.00 | 0.00 | 47 | 932.4 |
| 20260506140202 | 11 | 0 | 0.0 | 0.0 | 0.00 | 0.00 | 0.00 | 47 | 932.4 |
| 20260506135201 | 10 | 0 | 0.0 | 0.0 | 0.00 | 0.00 | 0.00 | 50 | 932.4 |
| 20260506134701 | 10 | 0 | 0.0 | 0.0 | 0.00 | 0.00 | 0.00 | 52 | 932.3 |
| 20260506133813 | 10 | 0 | 0.0 | 0.0 | 0.00 | 0.00 | 0.00 | 49 | 932.3 |
| 20260506133702 | 10 | 0 | 0.0 | 0.0 | 0.00 | 0.00 | 0.00 | 49 | 932.3 |
| 20260506133310 | 9 | 0 | 0.0 | 0.0 | 0.00 | 0.00 | 0.00 | 51 | 932.2 |
| 20260506133201 | 9 | 0 | 0.0 | 0.0 | 0.00 | 0.00 | 0.00 | 51 | 932.2 |
| 20260506132819 | 9 | 0 | 0.0 | 0.0 | 0.00 | 0.00 | 0.00 | 52 | 932.0 |
| 20260506132702 | 9 | 0 | 0.0 | 0.0 | 0.00 | 0.00 | 0.00 | 52 | 932.0 |
| 20260506082034 | 11 | 0 | 0.0 | 0.0 | 0.00 | 0.00 | 0.00 | 47 | 929.7 |
| 20260506081448 | 11 | 0 | 0.0 | 0.0 | 0.00 | 0.00 | 0.00 | 47 | 929.7 |